Etusivu
METAR-TAF:

METAR-TAF

Lentoasemat :

Luulajan lentoasema

Luulaja, Ruotsi

Leveyspiiri: 65-33N, Pituuspiiri: 022-08E, korkeus merenpinnasta: 17 m

Tämänhetkinen sää

Tämä raportti tehtiin 26 minuuttia sitten, kello 07.50 UTC
Tuuli 1 kn eri suunnista
Lämpötila 13°C
Kosteus 44%
Ilmanpaine 1023 hPa
Näkyvyys 10 km tai enemmän
ei pilviä alle 1500 m:ssä eikä cumulonimbus-pilviä

METAR: ESPA 240750Z VRB01KT CAVOK 13/01 Q1023

Aika: 10:16 (08:16 UTC)

Sääennuste

Tämä raportti tehtiin 2 tuntia ja 56 minuuttia sitten, kello 05.20 UTC
Ennuste voimassa 24. päivästä klo 06 UTC - 24. päivään klo 15 UTC
Tuuli 2 kn eri suunnista
Näkyvyys 10 km tai enemmän
ei pilviä alle 1500 m:ssä eikä cumulonimbus-pilviä

TAF: ESPA 240520Z 2406/2415 VRB02KT CAVOK RMK MIL

Säähavainnot ja -ennusteet yli 4000 lentoasemalta (METAR- ja TAF-raportit).

Käytössä olevat sääasemat on merkitty karttaan keltaisilla ja punaisilla pisteillä.

Aseta hiiri pisteen päälle nähdäksesi sääaseman nimen.

Klikkaa sitten nähdäksesi säähavainnot ja -ennusteet.

Kartan vaihtaminen: klikkaa mustalla rastilla varustettuja vihreitä pisteitä, niin voit zoomata sisään; viivalla varustettua vihreää pistettä, niin voit zoomata ulos tai vihreitä nuolia, niin pääset viereisille kartoille.


METAR-TAF: